Airfield :
LOGIN :

Register | Disclaimer

   EN    FR    IT 

 










Legend :    VFR   Marginal VFR   IFR   Intensive IFR   Very Intensive IFR
Visi :
Ceiling :
>= 8 km
>= 3000ft
5 to 8 km
1000 to 3000 ft
1500m to 5 km
500 to 1000 ft
800 to 1500m
200 to 500 ft
< 800m
< 200 ft
Symbols :   Thunderstorms  Fog  Heavy snow  Heavy precipitations  Wind > 20 kt
SIGMETs :     Misc.  Thunderstorms  Icing  Turbulence  Mountain Waves  Volcanic Ashes







- Airport Elevation : 400 ft
- IATA code : BNX


LQBK - Banja Luka

CURRENT METAR :
  • 251200Z VRB04KT CAVOK 28/11 Q1014 NOSIG

EXPIRED METARs :
  • 251130Z 36005KT 290V060 CAVOK 27/12 Q1014 NOSIG
  • 251100Z VRB07KT CAVOK 26/11 Q1015 NOSIG
  • 251030Z 22010KT CAVOK 27/10 Q1015 NOSIG
  • 251000Z 21008KT 180V280 CAVOK 26/11 Q1015 NOSIG
  • 250930Z 06002KT CAVOK 26/12 Q1016 NOSIG
  • 250900Z VRB01KT CAVOK 25/13 Q1016 NOSIG

TAF TAF LQBK
Valid from the 25 at 12:00 until the 26 at 12:00 UTC


251100Z 2512/2612 25006KT CAVOK TX29/2514Z TN12/2604Z
No reported NOTAMs for that airfield.



MET'MAP, your aeronautical weather chart ! - Copyright ORBIFLY December 2007 - Disclaimer

ORBIFLY MET'MAP TEAM :

Programming & Development : Alexandra Zaïnal
Concept & Development : Baudouin d'Aumeries
Co-Development & Prog : Marc-Olivier Méhu
Technical & hardware support : Manuel Goepfert

Contact : metmap@orbifly.com




SOURCES & CREDITS :

   NOAA